Time;durP1;ratioP1;P1;durP2;ratioP2;P2;SDS_P1;SDS_P2;PMS_P1;PMS_P2;Temp;Humidity;BMP_temperature;BMP_pressure;BME280_temperature;BME280_humidity;BME280_pressure;Samples;Min_cycle;Max_cycle;Signal;HPM_P1;HPM_P2
2023/05/10 00:01:42;;;;;;;5.47;4.23;;;11.20;99.90;;;-141.84;58.01;20098.38;5053463;28;20573;-55
2023/05/10 00:04:10;;;;;;;5.57;4.17;;;11.20;99.90;;;-141.84;58.02;20082.13;5053691;28;20236;-55
2023/05/10 00:06:39;;;;;;;4.40;4.00;;;11.20;99.90;;;-141.84;58.50;20076.03;5053444;28;20205;-57
2023/05/10 00:09:07;;;;;;;6.03;4.47;;;11.20;99.90;;;-141.84;58.97;20067.88;5053582;28;20231;-58
2023/05/10 00:11:36;;;;;;;5.10;4.27;;;11.20;99.90;;;-141.84;58.21;20102.44;5053411;28;20205;-56
2023/05/10 00:14:05;;;;;;;5.33;4.00;;;11.10;99.90;;;-141.84;58.71;20090.25;5053557;28;20673;-57
2023/05/10 00:16:33;;;;;;;4.80;4.30;;;11.10;99.90;;;-141.84;58.70;20090.25;5052917;28;20205;-57
2023/05/10 00:19:01;;;;;;;5.83;4.17;;;11.10;99.90;;;-141.84;58.51;20086.19;5053435;28;20280;-54
2023/05/10 00:21:29;;;;;;;5.53;4.37;;;11.20;99.90;;;-141.84;58.65;20069.94;5048931;28;20198;-59
2023/05/10 00:23:57;;;;;;;4.57;3.87;;;11.10;99.90;;;-141.84;58.77;20061.78;5049319;28;20201;-59
2023/05/10 00:26:26;;;;;;;6.67;4.10;;;11.10;99.90;;;-141.84;58.87;20047.56;5053171;28;20223;-54
2023/05/10 00:28:56;;;;;;;5.53;4.40;;;11.00;99.90;;;-141.84;59.13;20029.28;5053115;28;20217;-59
2023/05/10 00:31:24;;;;;;;4.83;3.97;;;11.10;99.90;;;-141.84;59.48;20017.09;5041067;28;20213;-57
2023/05/10 00:33:52;;;;;;;5.27;4.20;;;10.90;99.90;;;-141.84;59.38;20049.59;5040249;28;20296;-58
2023/05/10 00:36:21;;;;;;;4.63;4.23;;;11.00;99.90;;;-141.84;59.00;20047.56;5053103;28;20216;-57
2023/05/10 00:38:49;;;;;;;5.10;4.60;;;11.00;99.90;;;-141.84;58.68;20065.84;5052646;28;20708;-56
2023/05/10 00:41:17;;;;;;;5.00;3.80;;;11.00;99.90;;;-141.84;58.92;20078.06;5052908;28;20206;-58
2023/05/10 00:43:45;;;;;;;4.27;3.87;;;11.00;99.90;;;-141.84;58.95;20049.59;5052508;28;20205;-56
2023/05/10 00:46:16;;;;;;;4.93;4.43;;;11.00;99.90;;;-141.84;58.23;20029.28;5052530;28;20615;-55
2023/05/10 00:48:45;;;;;;;6.33;4.40;;;11.10;99.90;;;-141.84;58.25;20069.94;5047486;28;20285;-54
2023/05/10 00:51:14;;;;;;;4.60;4.20;;;11.10;99.90;;;-141.84;58.14;20035.38;5035331;28;20189;-55
2023/05/10 00:53:44;;;;;;;4.93;4.43;;;11.20;99.90;;;-141.84;58.61;20084.16;5052916;28;20236;-57
2023/05/10 00:56:13;;;;;;;4.57;4.17;;;11.10;99.90;;;-141.84;58.54;20084.16;5052392;28;20427;-54
2023/05/10 00:58:41;;;;;;;4.57;4.17;;;11.10;99.90;;;-141.84;58.42;20080.09;5052214;28;20665;-57
2023/05/10 01:01:11;;;;;;;4.50;4.10;;;11.10;99.90;;;-141.84;58.58;20039.44;5052486;28;20551;-54
2023/05/10 01:03:41;;;;;;;5.33;4.00;;;11.10;99.90;;;-141.84;58.94;20049.59;5052400;28;20205;-56
2023/05/10 01:06:11;;;;;;;4.67;4.20;;;11.00;99.90;;;-141.84;59.17;20045.53;5052344;28;20205;-55
2023/05/10 01:08:40;;;;;;;5.00;4.20;;;11.00;99.90;;;-141.84;58.35;20059.75;5051969;28;20215;-54
2023/05/10 01:11:08;;;;;;;5.13;4.20;;;11.10;99.90;;;-141.84;58.88;20053.66;5051577;28;20201;-55
2023/05/10 01:13:39;;;;;;;4.70;4.30;;;11.00;99.90;;;-141.84;59.43;20049.59;5051926;28;20236;-55
2023/05/10 01:16:08;;;;;;;4.97;3.93;;;11.00;99.90;;;-141.84;58.99;20041.47;5052286;28;20216;-55
2023/05/10 01:18:41;;;;;;;4.77;4.10;;;11.00;99.90;;;-141.84;59.51;20049.59;5052230;28;20236;-52
2023/05/10 01:21:24;;;;;;;4.43;4.03;;;11.00;99.90;;;-141.84;59.67;20041.47;5051941;28;20190;-56
2023/05/10 01:24:37;;;;;;;4.33;3.93;;;10.90;99.90;;;-141.84;59.79;20008.94;5052152;28;20193;-55
2023/05/10 01:27:48;;;;;;;4.77;4.37;;;10.90;99.90;;;-141.84;59.58;20067.88;5045025;28;20208;-57
2023/05/10 01:31:13;;;;;;;7.93;4.50;;;10.90;99.90;;;-141.84;59.36;20023.19;5032171;28;20210;-57
2023/05/10 01:33:53;;;;;;;5.10;4.17;;;10.90;99.90;;;-141.84;59.97;20004.88;5023088;28;20236;-55
2023/05/10 01:36:30;;;;;;;5.93;4.00;;;10.80;99.90;;;-141.84;60.09;20025.22;5051914;28;20208;-54
2023/05/10 01:39:10;;;;;;;4.57;4.17;;;10.80;99.90;;;-141.84;59.65;20037.41;5051592;28;20652;-58
2023/05/10 01:41:48;;;;;;;4.97;4.47;;;10.80;99.90;;;-141.84;59.88;20017.09;5052038;28;20200;-55
2023/05/10 01:44:30;;;;;;;4.80;4.30;;;10.80;99.90;;;-141.84;60.16;20015.03;5051815;28;20197;-54
2023/05/10 01:47:08;;;;;;;4.73;4.27;;;10.80;99.90;;;-141.84;60.54;19990.66;5051458;28;20193;-55
2023/05/10 01:49:46;;;;;;;6.17;4.60;;;10.70;99.90;;;-141.84;59.83;20002.84;5039174;28;20229;-57
2023/05/10 01:52:20;;;;;;;4.30;3.90;;;10.70;99.90;;;-141.84;60.23;20017.09;5042710;28;20186;-57
2023/05/10 01:54:56;;;;;;;4.40;4.00;;;10.80;99.90;;;-141.84;60.44;20004.88;5051329;28;20642;-55
2023/05/10 01:57:32;;;;;;;6.40;4.00;;;10.70;99.90;;;-141.84;60.56;20013.00;5051813;28;20182;-54
2023/05/10 02:00:03;;;;;;;5.63;4.43;;;10.70;99.90;;;-141.84;60.44;20049.59;5051491;28;20188;-68
2023/05/10 02:02:37;;;;;;;4.67;4.20;;;10.70;99.90;;;-141.84;59.98;20035.38;5051583;28;20211;-68
2023/05/10 02:05:10;;;;;;;5.23;4.00;;;10.70;99.90;;;-141.84;60.70;19990.66;5051439;28;20239;-68
2023/05/10 02:07:39;;;;;;;4.90;4.20;;;10.70;99.90;;;-141.84;60.67;19998.78;5051608;28;20194;-67
2023/05/10 02:10:10;;;;;;;7.13;4.50;;;10.70;99.90;;;-141.84;60.38;20043.50;5051355;28;20240;-67
2023/05/10 02:12:44;;;;;;;4.63;4.23;;;10.70;99.90;;;-141.84;61.02;19972.38;5051581;28;20197;-67
2023/05/10 02:15:16;;;;;;;5.13;4.10;;;10.60;99.90;;;-141.84;60.88;20019.13;5051378;28;20212;-68
2023/05/10 02:17:47;;;;;;;5.47;4.63;;;10.60;99.90;;;-141.84;61.05;20013.00;5051260;28;20190;-66
2023/05/10 02:20:19;;;;;;;5.43;4.37;;;10.60;99.90;;;-141.84;61.17;19982.53;5051286;28;20269;-68
2023/05/10 02:22:51;;;;;;;4.70;4.30;;;10.70;99.90;;;-141.84;61.27;19996.75;5051245;28;20197;-68
2023/05/10 02:25:22;;;;;;;5.50;4.17;;;10.60;99.90;;;-141.84;61.24;19994.72;5035556;28;20193;-68
2023/05/10 02:27:54;;;;;;;4.93;4.10;;;10.60;99.90;;;-141.84;61.69;19986.59;5035288;28;20689;-68
2023/05/10 02:30:24;;;;;;;4.87;4.30;;;10.60;99.90;;;-141.84;61.31;19990.66;5035529;28;20305;-68
2023/05/10 02:32:54;;;;;;;4.67;4.27;;;10.60;99.90;;;-141.84;61.05;20002.84;5035754;28;20212;-68
2023/05/10 02:35:26;;;;;;;4.80;4.40;;;10.60;99.90;;;-141.84;61.03;19992.69;5054934;28;20312;-69
2023/05/10 02:37:58;;;;;;;5.40;4.50;;;10.60;99.90;;;-141.84;61.21;19988.63;5055412;28;20197;-68
2023/05/10 02:40:29;;;;;;;4.80;4.30;;;10.60;99.90;;;-141.84;62.07;19992.69;5054969;28;20182;-68
2023/05/10 02:43:01;;;;;;;4.47;4.07;;;10.50;99.90;;;-141.84;62.24;19984.56;5055364;28;20185;-68
2023/05/10 02:45:33;;;;;;;5.03;4.53;;;10.40;99.90;;;-141.84;61.93;19970.34;5055266;28;20653;-67
2023/05/10 02:48:01;;;;;;;6.27;4.70;;;10.40;99.90;;;-141.84;62.18;19964.25;5054874;28;20237;-68
2023/05/10 02:50:34;;;;;;;4.77;4.37;;;10.40;99.90;;;-141.84;62.56;19962.19;5035719;28;20299;-68
2023/05/10 02:53:10;;;;;;;5.10;4.10;;;10.40;99.90;;;-141.84;62.25;19960.16;5052852;28;20645;-68
2023/05/10 02:55:42;;;;;;;4.90;4.40;;;10.40;99.90;;;-141.84;62.58;19929.69;5054789;28;20196;-69
2023/05/10 02:58:10;;;;;;;5.10;4.57;;;10.30;99.90;;;-141.84;62.91;19939.84;5055093;28;20552;-68
2023/05/10 03:00:38;;;;;;;5.93;4.23;;;10.30;99.90;;;-141.84;62.64;19976.44;5054916;28;20231;-68
2023/05/10 03:03:06;;;;;;;5.47;4.20;;;10.30;99.90;;;-141.84;63.18;19917.50;5053179;28;20201;-68
2023/05/10 03:05:36;;;;;;;6.40;4.67;;;10.30;99.90;;;-141.84;62.36;19962.19;5045692;28;20206;-69
2023/05/10 03:08:05;;;;;;;4.93;4.53;;;10.30;99.90;;;-141.84;62.92;19952.03;5034530;28;20682;-68
2023/05/10 03:10:42;;;;;;;5.87;4.27;;;10.30;99.90;;;-141.84;62.72;19968.31;5040861;28;20217;-68
2023/05/10 03:13:29;;;;;;;5.37;4.33;;;10.30;99.90;;;-141.84;63.14;19935.78;5054428;28;20174;-69
2023/05/10 03:16:07;;;;;;;4.60;4.10;;;10.20;99.90;;;-141.84;62.58;19980.50;5054781;28;20190;-68
2023/05/10 03:18:45;;;;;;;4.80;4.30;;;10.30;99.90;;;-141.84;62.96;19939.84;5055074;28;20213;-67
2023/05/10 03:21:18;;;;;;;7.23;4.40;;;10.30;99.90;;;-141.84;63.06;19968.31;5054805;28;20200;-68
2023/05/10 03:23:59;;;;;;;5.57;4.90;;;10.30;99.90;;;-141.84;63.33;19958.13;5055326;28;20549;-68
2023/05/10 03:26:29;;;;;;;5.33;4.83;;;10.20;99.90;;;-141.84;63.31;19919.53;5054829;28;20193;-68
2023/05/10 03:28:59;;;;;;;4.67;4.13;;;10.20;99.90;;;-141.84;62.46;19943.91;5054937;28;20657;-67
2023/05/10 03:31:28;;;;;;;5.10;4.43;;;10.30;99.90;;;-141.84;62.51;19958.13;5055005;28;20232;-67
2023/05/10 03:33:56;;;;;;;5.23;4.70;;;10.30;99.90;;;-141.84;62.99;19947.97;5046392;28;20212;-68
2023/05/10 03:36:26;;;;;;;5.07;4.33;;;10.30;99.90;;;-141.84;62.86;19939.84;5034513;28;20261;-68
2023/05/10 03:38:54;;;;;;;4.13;3.80;;;10.30;99.90;;;-141.84;63.20;19974.41;5034880;28;20209;-67
2023/05/10 03:41:22;;;;;;;5.10;4.10;;;10.30;99.90;;;-141.84;62.72;19947.97;5034658;28;20202;-67
2023/05/10 03:43:50;;;;;;;4.57;4.13;;;10.40;99.90;;;-141.84;62.86;19945.94;5034707;28;20557;-68
2023/05/10 03:46:19;;;;;;;4.97;4.47;;;10.40;99.90;;;-141.84;62.77;19958.13;5034591;28;20209;-68
2023/05/10 03:48:47;;;;;;;5.87;4.80;;;10.40;99.90;;;-141.84;62.16;19994.72;5033779;28;20248;-67
2023/05/10 03:51:15;;;;;;;4.97;4.30;;;10.50;99.90;;;-141.84;62.43;19952.03;5036923;28;20213;-68
2023/05/10 03:53:45;;;;;;;4.90;4.40;;;10.50;99.90;;;-141.84;62.41;19974.41;5054385;28;20202;-67
2023/05/10 03:56:13;;;;;;;4.90;4.13;;;10.50;99.90;;;-141.84;61.96;19992.69;5054409;28;20201;-67
2023/05/10 03:58:41;;;;;;;4.50;4.03;;;10.50;99.90;;;-141.84;61.95;19964.25;5054563;28;20211;-69
2023/05/10 04:01:09;;;;;;;4.90;4.40;;;10.60;99.90;;;-141.84;61.20;20019.13;5054009;28;20673;-68
2023/05/10 04:03:38;;;;;;;5.70;4.60;;;10.70;99.90;;;-141.84;60.16;20008.94;5054128;28;20213;-68
2023/05/10 04:06:08;;;;;;;4.83;4.17;;;10.80;99.90;;;-141.84;60.18;20037.41;5053485;28;20673;-69
2023/05/10 04:08:36;;;;;;;5.20;4.30;;;10.90;99.90;;;-141.84;59.90;20035.38;5034399;28;20188;-68
2023/05/10 04:11:11;;;;;;;4.90;4.40;;;11.00;99.90;;;-141.84;59.71;20049.59;5034810;28;20236;-68
2023/05/10 04:13:39;;;;;;;4.93;4.30;;;11.10;99.90;;;-141.84;58.96;20076.03;5034546;28;20186;-69
2023/05/10 04:16:08;;;;;;;5.63;4.50;;;11.10;99.90;;;-141.84;59.46;20069.94;5043467;28;20201;-67
2023/05/10 04:18:36;;;;;;;5.00;4.50;;;11.20;99.90;;;-141.84;59.32;20055.69;5054093;28;20201;-69
2023/05/10 04:21:04;;;;;;;5.27;4.50;;;11.20;99.90;;;-141.84;58.52;20086.19;5053435;28;20205;-68
2023/05/10 04:23:32;;;;;;;4.73;4.27;;;11.30;99.90;;;-141.84;59.20;20088.22;5053624;28;20201;-68
2023/05/10 04:26:01;;;;;;;5.23;4.43;;;11.30;99.90;;;-141.84;58.37;20092.28;5053370;28;20201;-69
2023/05/10 04:28:31;;;;;;;5.53;4.23;;;11.40;99.90;;;-141.84;59.00;20053.66;5053571;28;20202;-68
2023/05/10 04:31:04;;;;;;;4.70;4.30;;;11.40;99.90;;;-141.84;58.80;20080.09;5053115;28;20228;-68
2023/05/10 04:33:33;;;;;;;5.03;4.13;;;11.40;99.90;;;-141.84;58.61;20112.59;5049349;28;20237;-69
2023/05/10 04:36:02;;;;;;;4.73;4.07;;;11.50;99.90;;;-141.84;57.95;20118.69;5033319;28;20198;-69
2023/05/10 04:38:30;;;;;;;5.77;3.80;;;11.60;99.90;;;-141.84;57.76;20141.06;5033526;28;20214;-69
2023/05/10 04:41:07;;;;;;;5.43;4.20;;;11.70;99.90;;;-141.84;57.89;20163.41;5033322;28;20205;-68
2023/05/10 04:43:37;;;;;;;4.23;3.83;;;11.80;99.90;;;-141.84;57.64;20151.22;5033612;28;20228;-68
2023/05/10 04:46:06;;;;;;;6.37;4.47;;;11.90;99.90;;;-141.84;57.44;20163.41;5033582;28;20186;-69
2023/05/10 04:48:35;;;;;;;5.73;4.57;;;12.00;99.90;;;-141.84;57.36;20206.09;5033507;28;20234;-68
2023/05/10 04:51:04;;;;;;;5.20;4.30;;;12.10;99.90;;;-141.84;56.20;20220.34;5034637;28;20225;-68
2023/05/10 04:53:32;;;;;;;6.50;4.27;;;12.30;99.90;;;-141.84;55.57;20281.31;5052739;28;20227;-68
2023/05/10 04:56:01;;;;;;;5.68;4.00;;;12.50;99.90;;;-141.84;52.18;20504.91;5052978;28;20205;-69
2023/05/10 04:58:29;;;;;;;6.55;3.90;;;13.40;99.90;;;-141.84;47.81;20809.81;5052772;28;20300;-68
2023/05/10 05:01:06;;;;;;;4.97;4.10;;;14.70;99.90;;;-141.84;45.17;20960.25;5052561;28;20207;-68
2023/05/10 05:03:34;;;;;;;4.60;3.78;;;15.50;99.90;;;-141.84;41.77;21222.53;5047952;28;20221;-70
2023/05/10 05:06:03;;;;;;;4.55;4.03;;;16.60;99.90;;;-141.84;41.29;21257.09;5032368;28;20557;-69
2023/05/10 05:08:31;;;;;;;4.80;3.97;;;17.10;99.90;;;-141.84;40.79;21301.81;5033036;28;20202;-68
2023/05/10 05:11:00;;;;;;;4.40;3.83;;;17.60;99.90;;;-141.84;40.64;21340.44;5032471;28;20696;-69
2023/05/10 05:13:28;;;;;;;5.78;4.35;;;17.80;99.90;;;-141.84;40.44;21366.88;5050833;28;20205;-68
2023/05/10 05:15:58;;;;;;;6.60;4.25;;;18.00;99.90;;;-141.84;41.10;21259.13;5052572;28;20237;-69
2023/05/10 05:18:26;;;;;;;6.57;3.95;;;17.80;99.90;;;-141.84;42.01;21216.41;5052528;28;20205;-69
2023/05/10 05:20:54;;;;;;;5.75;3.83;;;17.60;99.90;;;-141.84;42.92;21155.44;5052832;28;20205;-69
2023/05/10 05:23:24;;;;;;;5.00;4.50;;;17.40;99.90;;;-141.84;43.58;21057.84;5052752;28;20201;-68
2023/05/10 05:25:53;;;;;;;6.13;4.32;;;17.10;99.90;;;-141.84;44.25;21061.91;5052744;28;20189;-67
2023/05/10 05:28:21;;;;;;;5.68;4.10;;;17.10;99.90;;;-141.84;44.21;21019.22;5052219;28;20202;-68
2023/05/10 05:30:50;;;;;;;6.22;4.18;;;16.90;99.90;;;-141.84;44.57;21011.09;5052510;28;20201;-68
2023/05/10 05:33:19;;;;;;;6.82;4.80;;;17.00;99.90;;;-141.84;44.80;20994.81;5050010;28;20216;-68
2023/05/10 05:35:50;;;;;;;4.97;4.40;;;17.00;99.90;;;-141.84;44.90;20976.53;5031993;28;20202;-68
2023/05/10 05:38:18;;;;;;;7.25;4.43;;;16.90;99.90;;;-141.84;45.28;20970.41;5031829;28;20189;-68
2023/05/10 05:40:46;;;;;;;5.13;3.97;;;16.90;99.90;;;-141.84;45.43;20990.75;5032161;28;20281;-68
2023/05/10 05:43:15;;;;;;;6.60;4.03;;;16.90;99.90;;;-141.84;45.12;20960.25;5031753;28;20198;-67
2023/05/10 05:45:43;;;;;;;6.18;3.92;;;16.90;99.90;;;-141.84;45.26;20988.72;5031490;28;20202;-69
2023/05/10 05:48:11;;;;;;;4.75;4.13;;;17.00;99.90;;;-141.84;45.36;20990.75;5031086;28;20257;-69
2023/05/10 05:50:41;;;;;;;6.57;4.38;;;17.10;99.90;;;-141.84;45.26;20996.84;5031387;28;20609;-69
2023/05/10 05:53:10;;;;;;;4.68;3.80;;;17.10;99.90;;;-141.84;45.50;21000.91;5049962;28;20221;-68
2023/05/10 05:55:38;;;;;;;4.40;4.00;;;17.20;99.90;;;-141.84;45.08;21031.41;5051594;28;20212;-69
2023/05/10 05:58:06;;;;;;;6.07;4.05;;;17.20;99.90;;;-141.84;45.44;20946.03;5051326;28;20204;-76
2023/05/10 06:00:35;;;;;;;4.47;3.90;;;17.00;99.90;;;-141.84;45.82;20883.00;5046605;28;20201;-62
2023/05/10 06:03:03;;;;;;;5.43;4.28;;;16.70;99.90;;;-141.84;46.05;20856.56;5050222;28;20700;-62
2023/05/10 06:05:31;;;;;;;3.78;3.38;;;16.50;99.90;;;-141.84;46.45;20785.44;5043730;28;20284;-67
2023/05/10 06:08:02;;;;;;;4.47;3.80;;;16.30;99.90;;;-141.84;47.26;20781.38;5046908;28;20206;-69
2023/05/10 06:10:30;;;;;;;7.18;4.60;;;16.00;99.90;;;-141.84;47.50;20752.91;5049739;28;20198;-69
2023/05/10 06:12:58;;;;;;;5.75;3.90;;;15.90;99.90;;;-141.84;47.57;20756.97;5051044;28;20221;-68
2023/05/10 06:15:27;;;;;;;5.60;3.95;;;15.90;99.90;;;-141.84;48.08;20761.03;5050985;28;20617;-66
2023/05/10 06:17:55;;;;;;;4.20;3.80;;;15.80;99.90;;;-141.84;48.12;20811.84;5050585;28;20194;-69
2023/05/10 06:20:23;;;;;;;5.28;3.83;;;15.70;99.90;;;-141.84;47.97;20746.81;5058729;28;20212;-69
2023/05/10 06:22:51;;;;;;;5.13;3.60;;;15.70;99.90;;;-141.84;48.18;20779.31;5056847;28;20197;-73
2023/05/10 06:25:21;;;;;;;5.03;4.00;;;15.70;99.90;;;-141.84;47.66;20748.84;5051182;28;20213;-73
2023/05/10 06:27:49;;;;;;;6.78;3.70;;;15.70;99.90;;;-141.84;47.51;20765.09;5051040;28;20224;-74
2023/05/10 06:30:22;;;;;;;7.10;4.07;;;15.70;99.90;;;-141.84;47.67;20777.28;5050755;28;20224;-74
2023/05/10 06:32:51;;;;;;;6.00;3.78;;;15.70;99.90;;;-141.84;47.50;20773.22;5050359;28;20240;-73
2023/05/10 06:35:19;;;;;;;4.38;3.97;;;15.70;99.90;;;-141.84;47.76;20785.44;5043792;28;20201;-66
2023/05/10 06:37:48;;;;;;;4.43;3.88;;;15.80;99.90;;;-141.84;47.93;20856.56;5050788;28;20228;-67
2023/05/10 06:40:18;;;;;;;5.05;3.65;;;15.90;99.90;;;-141.84;47.34;20866.75;5050775;28;20209;-67
2023/05/10 06:42:47;;;;;;;4.10;3.70;;;16.10;99.90;;;-141.84;46.57;20935.88;5050557;28;20201;-67
2023/05/10 06:45:16;;;;;;;6.07;4.28;;;16.40;99.90;;;-141.84;45.81;20927.72;5050981;28;20202;-67
2023/05/10 06:47:45;;;;;;;3.85;3.55;;;16.60;99.90;;;-141.84;45.71;21055.81;5050548;28;20291;-68
2023/05/10 06:50:14;;;;;;;7.78;3.85;;;17.00;99.90;;;-141.84;44.60;21155.44;5034069;28;20194;-70
2023/05/10 06:52:42;;;;;;;8.20;3.85;;;17.40;99.90;;;-141.84;43.55;21190.00;5047947;28;20311;-68
2023/05/10 06:55:11;;;;;;;4.28;3.80;;;17.70;99.90;;;-141.84;43.69;21253.00;5050739;28;20202;-67
2023/05/10 06:57:39;;;;;;;5.95;3.60;;;18.20;99.90;;;-141.84;43.15;21291.66;5051114;28;20197;-69
2023/05/10 07:00:10;;;;;;;4.32;3.92;;;18.40;99.90;;;-141.84;43.36;21316.03;5050202;28;20222;-69
2023/05/10 07:02:38;;;;;;;4.47;4.07;;;18.60;99.90;;;-141.84;42.56;21301.81;5050653;28;20190;-68
2023/05/10 07:05:07;;;;;;;4.20;3.80;;;18.60;99.90;;;-141.84;42.96;21285.53;5050320;28;20209;-69
2023/05/10 07:07:35;;;;;;;5.07;4.15;;;18.50;99.90;;;-141.84;43.11;21289.59;5050888;28;20198;-69
2023/05/10 07:10:04;;;;;;;3.97;3.47;;;18.30;99.90;;;-141.84;43.45;21232.69;5053094;28;20220;-68
2023/05/10 07:12:32;;;;;;;5.10;3.63;;;18.30;99.90;;;-141.84;44.19;21171.69;5054290;28;20240;-69
2023/05/10 07:15:01;;;;;;;5.38;3.88;;;18.10;99.90;;;-141.84;44.05;21192.03;5054273;28;20213;-70
2023/05/10 07:17:30;;;;;;;4.30;3.63;;;17.90;99.90;;;-141.84;43.87;21155.44;5054116;28;20205;-71
2023/05/10 07:19:59;;;;;;;4.93;4.05;;;17.80;99.90;;;-141.84;44.47;21110.69;5053788;28;20210;-71
2023/05/10 07:22:27;;;;;;;4.65;3.17;;;17.70;99.90;;;-141.84;45.05;21143.22;5047027;28;20650;-73
2023/05/10 07:24:55;;;;;;;4.20;3.80;;;17.70;99.90;;;-141.84;45.05;21135.09;5054151;28;20251;-76
2023/05/10 07:27:24;;;;;;;3.90;3.60;;;17.60;99.90;;;-141.84;44.71;21124.94;5054281;28;20589;-75
2023/05/10 07:29:52;;;;;;;4.30;3.90;;;17.60;99.90;;;-141.84;44.65;21147.28;5053869;28;20666;-75
2023/05/10 07:32:20;;;;;;;5.95;3.60;;;17.60;99.90;;;-141.84;44.45;21187.97;5053780;28;20217;-67
2023/05/10 07:34:50;;;;;;;3.90;3.60;;;17.80;99.90;;;-141.84;44.67;21226.59;5053261;28;20564;-67
2023/05/10 07:37:18;;;;;;;4.28;3.95;;;18.00;99.90;;;-141.84;44.07;21240.81;5054005;28;20213;-67
2023/05/10 07:39:46;;;;;;;8.43;3.72;;;18.10;99.90;;;-141.84;43.92;21279.44;5053846;28;20205;-68
2023/05/10 07:42:14;;;;;;;4.45;4.00;;;18.20;99.90;;;-141.84;43.78;21354.66;5053557;28;20212;-68
2023/05/10 07:44:43;;;;;;;6.13;4.05;;;18.40;99.90;;;-141.84;43.37;21387.19;5053488;28;20201;-68
2023/05/10 07:47:11;;;;;;;4.35;3.70;;;18.60;99.90;;;-141.84;43.26;21440.06;5053315;28;20202;-69
2023/05/10 07:49:39;;;;;;;6.32;3.53;;;18.90;99.90;;;-141.84;42.56;21456.34;5040734;28;20242;-68
2023/05/10 07:52:09;;;;;;;4.15;3.72;;;19.10;99.90;;;-141.84;42.19;21492.94;5043489;28;20565;-68
2023/05/10 07:54:37;;;;;;;5.53;4.38;;;19.00;99.90;;;-141.84;42.36;21452.25;5053063;28;20209;-69
2023/05/10 07:57:06;;;;;;;4.20;3.80;;;19.00;99.90;;;-141.84;42.75;21452.25;5053484;28;20210;-72
2023/05/10 07:59:34;;;;;;;6.53;4.10;;;19.00;99.90;;;-141.84;42.84;21456.34;5053358;28;20212;-72
2023/05/10 08:02:02;;;;;;;4.47;4.10;;;19.00;99.90;;;-141.84;42.93;21425.84;5052823;28;20227;-69
2023/05/10 08:04:30;;;;;;;4.43;4.10;;;19.10;99.90;;;-141.84;43.21;21468.53;5052990;28;20205;-67
2023/05/10 08:06:58;;;;;;;4.97;4.13;;;19.20;99.90;;;-141.84;42.82;21446.16;5053363;28;20398;-70
2023/05/10 08:09:28;;;;;;;4.78;4.38;;;19.20;99.90;;;-141.84;44.03;21362.81;5053044;28;20296;-72
2023/05/10 08:11:56;;;;;;;6.10;3.97;;;18.90;99.90;;;-141.84;43.88;21425.84;5053261;28;20216;-71
2023/05/10 08:14:24;;;;;;;4.32;3.92;;;18.90;99.90;;;-141.84;44.31;21403.47;5053042;28;20232;-70
2023/05/10 08:16:52;;;;;;;7.28;4.40;;;18.80;99.90;;;-141.84;44.28;21318.06;5052434;28;20202;-67
2023/05/10 08:19:21;;;;;;;4.65;3.72;;;18.60;99.90;;;-141.84;44.09;21358.75;5052577;28;20208;-69
2023/05/10 08:21:49;;;;;;;5.05;4.38;;;18.70;99.90;;;-141.84;44.37;21314.00;5047664;28;20213;-68
2023/05/10 08:24:17;;;;;;;4.95;4.45;;;18.60;99.90;;;-141.84;44.26;21391.28;5052279;28;20193;-69
2023/05/10 08:26:47;;;;;;;4.50;3.40;;;18.60;99.90;;;-141.84;44.19;21478.69;5052957;28;20208;-69
2023/05/10 08:29:15;;;;;;;4.10;3.38;;;18.80;99.90;;;-141.84;44.12;21448.19;5053249;28;20204;-69
2023/05/10 08:31:44;;;;;;;4.63;4.22;;;18.90;99.90;;;-141.84;44.69;21360.78;5052909;28;20205;-69
2023/05/10 08:34:13;;;;;;;4.88;4.40;;;18.60;99.90;;;-141.84;45.91;21305.88;5052716;28;20233;-69
2023/05/10 08:36:41;;;;;;;4.60;4.20;;;18.50;99.90;;;-141.84;46.07;21311.97;5052809;28;20205;-69
2023/05/10 08:39:09;;;;;;;5.18;4.13;;;18.30;99.90;;;-141.84;46.75;21293.69;5052791;28;20209;-68
2023/05/10 08:42:05;;;;;;;4.60;4.20;;;18.30;99.90;;;-141.84;47.24;21301.81;5052854;28;20186;-68
2023/05/10 08:44:36;;;;;;;6.25;4.28;;;18.30;99.90;;;-141.84;46.32;21379.06;5052533;28;20204;-67
2023/05/10 08:47:07;;;;;;;5.85;4.07;;;18.30;99.90;;;-141.84;46.36;21311.97;5052587;28;20205;-68
2023/05/10 08:49:38;;;;;;;4.82;4.43;;;18.40;99.90;;;-141.84;46.27;21389.22;5040096;28;20230;-70
2023/05/10 08:52:09;;;;;;;5.43;4.30;;;18.50;99.90;;;-141.84;46.60;21293.69;5042409;28;20188;-70
2023/05/10 08:54:38;;;;;;;5.25;4.35;;;18.30;99.90;;;-141.84;48.05;21255.03;5052397;28;20213;-70
2023/05/10 08:57:08;;;;;;;6.35;4.45;;;18.10;99.90;;;-141.84;48.12;21187.97;5052392;28;20217;-69
2023/05/10 08:59:39;;;;;;;4.90;4.30;;;18.10;99.90;;;-141.84;49.36;21175.75;5052615;28;20305;-70
2023/05/10 09:02:11;;;;;;;5.55;4.30;;;17.80;99.90;;;-141.84;49.17;21139.16;5051752;28;20204;-69
2023/05/10 09:04:39;;;;;;;5.15;4.25;;;17.70;99.90;;;-141.84;49.16;21230.66;5051857;28;20212;-69
2023/05/10 09:07:08;;;;;;;7.13;4.15;;;17.60;99.90;;;-141.84;49.60;21131.03;5051977;28;20205;-70
2023/05/10 09:09:37;;;;;;;5.20;4.70;;;17.70;99.90;;;-141.84;49.69;21163.56;5052063;28;20646;-70
2023/05/10 09:12:10;;;;;;;4.95;4.53;;;17.60;99.90;;;-141.84;50.60;21055.81;5051910;28;20201;-71
2023/05/10 09:14:40;;;;;;;6.57;4.95;;;17.40;99.90;;;-141.84;51.66;20970.41;5052034;28;20213;-70
2023/05/10 09:17:08;;;;;;;5.93;4.30;;;17.10;99.90;;;-141.84;53.08;20966.34;5051835;28;20209;-71
2023/05/10 09:19:36;;;;;;;5.18;4.68;;;16.90;99.90;;;-141.84;55.26;20921.63;5051673;28;20315;-69
2023/05/10 09:22:05;;;;;;;5.72;4.95;;;16.80;99.90;;;-141.84;56.24;20862.69;5045243;28;20202;-70
2023/05/10 09:24:33;;;;;;;5.63;4.68;;;16.50;99.90;;;-141.84;56.78;20878.94;5047999;28;20562;-70
2023/05/10 09:27:03;;;;;;;5.55;5.05;;;16.40;99.90;;;-141.84;56.79;20791.53;5051537;28;20202;-71
2023/05/10 09:29:43;;;;;;;6.28;5.55;;;16.20;99.90;;;-141.84;58.94;20789.50;5051451;28;20641;-71
2023/05/10 09:32:11;;;;;;;5.78;4.90;;;15.90;99.90;;;-141.84;59.30;20732.56;5050280;28;20212;-69
2023/05/10 09:34:42;;;;;;;6.70;5.55;;;15.90;99.90;;;-141.84;60.30;20748.84;5050673;28;20249;-69
2023/05/10 09:37:10;;;;;;;5.78;5.28;;;15.80;99.90;;;-141.84;62.04;20673.63;5051419;28;20704;-69
2023/05/10 09:39:41;;;;;;;6.30;5.30;;;15.60;99.90;;;-141.84;64.10;20630.94;5051568;28;20685;-68
2023/05/10 09:42:11;;;;;;;6.22;5.63;;;15.50;99.90;;;-141.84;66.18;20545.56;5051437;28;20192;-69
2023/05/10 09:44:43;;;;;;;6.30;5.70;;;15.30;99.90;;;-141.84;68.36;20523.19;5051488;28;20263;-69
2023/05/10 09:47:11;;;;;;;6.75;5.85;;;15.10;99.90;;;-141.84;69.47;20511.00;5050169;28;20563;-67
2023/05/10 09:49:40;;;;;;;7.18;5.90;;;15.00;99.90;;;-141.84;70.15;20565.88;5038623;28;20245;-66
2023/05/10 09:52:09;;;;;;;7.10;6.40;;;14.90;99.90;;;-141.84;72.07;20460.19;5041512;28;20305;-67
2023/05/10 09:54:52;;;;;;;7.70;6.72;;;14.80;99.90;;;-141.84;71.84;20431.72;5051158;28;20321;-67
2023/05/10 09:57:22;;;;;;;6.60;6.00;;;14.70;99.90;;;-141.84;72.50;20456.13;5051299;28;20182;-66
2023/05/10 09:59:54;;;;;;;7.15;6.32;;;14.80;99.90;;;-141.84;72.26;20456.13;5051538;28;20215;-67
2023/05/10 10:02:28;;;;;;;7.35;6.65;;;14.80;99.90;;;-141.84;72.08;20490.66;5051003;28;20197;-67
2023/05/10 10:04:57;;;;;;;6.53;5.93;;;14.80;99.90;;;-141.84;71.53;20478.47;5051178;28;20287;-68
2023/05/10 10:07:26;;;;;;;7.22;6.30;;;15.00;99.90;;;-141.84;70.76;20531.31;5050667;28;20720;-66
2023/05/10 10:09:54;;;;;;;7.10;6.40;;;15.10;99.90;;;-141.84;71.22;20529.28;5050932;28;20211;-68
2023/05/10 10:12:22;;;;;;;7.63;6.93;;;15.10;99.90;;;-141.84;71.20;20515.06;5051052;28;20201;-66
2023/05/10 10:14:52;;;;;;;7.25;6.57;;;15.10;99.90;;;-141.84;70.20;20545.56;5051025;28;20225;-68
2023/05/10 10:17:22;;;;;;;7.85;6.90;;;15.20;99.90;;;-141.84;70.56;20537.44;5050818;28;20242;-68
2023/05/10 10:19:50;;;;;;;8.10;6.70;;;15.20;99.90;;;-141.84;70.85;20543.53;5050742;28;20201;-70